Time;durP1;ratioP1;P1;durP2;ratioP2;P2;SDS_P1;SDS_P2;PMS_P1;PMS_P2;Temp;Humidity;BMP_temperature;BMP_pressure;BME280_temperature;BME280_humidity;BME280_pressure;Samples;Min_cycle;Max_cycle;Signal;HPM_P1;HPM_P2
2022/02/01 00:01:33;;;;;;;2.20;2.00;;;;;;;1.39;83.72;96739.72;6280852;28;20238;-73
2022/02/01 00:04:46;;;;;;;2.27;2.10;;;;;;;1.36;84.30;96734.69;6279932;28;20638;-73
2022/02/01 00:11:09;;;;;;;2.23;2.03;;;;;;;1.28;84.10;96726.50;6279211;28;20229;-74
2022/02/01 00:14:29;;;;;;;2.03;1.93;;;;;;;1.24;84.06;96731.97;6279971;28;20239;-73
2022/02/01 00:18:16;;;;;;;1.80;1.70;;;;;;;1.17;84.34;96728.06;6279436;28;20714;-73
2022/02/01 00:38:00;;;;;;;1.63;1.53;;;;;;;1.01;85.63;96738.47;6279532;28;20231;-73
2022/02/01 00:41:07;;;;;;;1.80;1.70;;;;;;;1.02;86.03;96734.97;6187671;28;20227;-73
2022/02/01 00:44:09;;;;;;;1.50;1.40;;;;;;;1.03;85.76;96729.69;6254819;28;20242;-73
2022/02/01 00:47:11;;;;;;;1.63;1.53;;;;;;;1.05;86.06;96733.03;6254592;28;20230;-73
2022/02/01 00:50:15;;;;;;;1.40;1.30;;;;;;;1.06;85.93;96737.31;6255265;28;20718;-72
2022/02/01 00:53:26;;;;;;;1.50;1.40;;;;;;;1.06;85.93;96746.84;6253891;28;20234;-73
2022/02/01 00:56:28;;;;;;;1.10;1.00;;;;;;;1.06;85.68;96739.06;6256066;28;20242;-73
2022/02/01 00:59:30;;;;;;;1.13;1.03;;;;;;;1.09;86.19;96738.91;6270346;28;20601;-73
2022/02/01 01:02:33;;;;;;;1.07;1.03;;;;;;;1.11;85.84;96745.66;6252292;28;20230;-74
2022/02/01 01:05:36;;;;;;;0.90;0.90;;;;;;;1.13;85.57;96742.13;6240269;28;20707;-74
2022/02/01 01:08:38;;;;;;;0.70;0.70;;;;;;;1.11;85.69;96737.88;6254363;28;20998;-73
2022/02/01 01:11:40;;;;;;;0.80;0.80;;;;;;;1.08;85.71;96735.47;6254603;28;20230;-73
2022/02/01 01:45:14;;;;;;;1.30;1.20;;;;;;;1.41;84.17;96776.81;6277579;28;20231;-74
2022/02/01 01:54:52;;;;;;;1.27;1.17;;;;;;;1.41;84.16;96766.44;6277119;28;20297;-73
2022/02/01 01:57:54;;;;;;;1.60;1.50;;;;;;;1.38;84.12;96766.63;6278165;28;20214;-73
2022/02/01 02:01:11;;;;;;;1.20;1.10;;;;;;;1.32;83.97;96776.53;6264022;28;20234;-73
2022/02/01 02:04:14;;;;;;;2.13;1.83;;;;;;;1.26;84.31;96789.88;6277498;28;20223;-74
2022/02/01 02:07:16;;;;;;;1.47;1.37;;;;;;;1.20;84.56;96790.25;6276970;28;20233;-73
2022/02/01 02:10:25;;;;;;;1.57;1.47;;;;;;;1.18;85.17;96812.88;6276838;28;20242;-73
2022/02/01 02:16:29;;;;;;;1.70;1.60;;;;;;;1.09;85.00;96838.47;6276617;28;20248;-73
2022/02/01 02:19:33;;;;;;;1.67;1.50;;;;;;;1.04;85.61;96837.88;6276511;28;20776;-73
2022/02/01 02:22:35;;;;;;;1.93;1.83;;;;;;;1.03;86.08;96845.75;6257802;28;20765;-73
2022/02/01 02:25:39;;;;;;;1.87;1.77;;;;;;;1.04;85.99;96856.06;6276878;28;20237;-73
2022/02/01 02:28:41;;;;;;;1.83;1.73;;;;;;;1.07;85.75;96857.66;6258910;28;20230;-73
2022/02/01 02:31:43;;;;;;;1.77;1.67;;;;;;;1.10;85.19;96855.69;6276919;28;20237;-74
2022/02/01 02:34:46;;;;;;;1.70;1.60;;;;;;;1.12;85.33;96855.63;6258474;28;20227;-74
2022/02/01 02:37:48;;;;;;;1.80;1.70;;;;;;;1.12;85.87;96871.22;6276515;28;20237;-74
2022/02/01 02:47:17;;;;;;;2.90;2.23;;;;;;;1.07;86.11;96896.63;6275803;28;20280;-74
2022/02/01 02:50:22;;;;;;;2.20;2.00;;;;;;;1.07;85.97;96905.25;6276445;28;20253;-74
2022/02/01 02:53:24;;;;;;;2.50;2.30;;;;;;;1.06;85.64;96897.53;6276844;28;20225;-73
2022/02/01 02:56:26;;;;;;;2.30;2.10;;;;;;;1.08;85.62;96911.28;6275557;28;20778;-73
2022/02/01 02:59:29;;;;;;;2.47;2.27;;;;;;;1.08;85.46;96916.50;6275800;28;20237;-74
2022/02/01 03:02:33;;;;;;;3.63;2.17;;;;;;;1.08;84.85;96919.94;6277661;28;20237;-74
2022/02/01 03:05:35;;;;;;;2.17;2.07;;;;;;;1.11;85.04;96924.94;6279830;28;20820;-72
2022/02/01 03:08:38;;;;;;;3.13;2.83;;;;;;;1.10;84.89;96930.22;6274833;28;20263;-73
2022/02/01 03:11:41;;;;;;;2.43;2.23;;;;;;;1.09;84.27;96941.56;6276105;28;20230;-74
2022/02/01 03:21:06;;;;;;;2.70;2.50;;;;;;;1.05;83.79;96959.06;6274919;28;20230;-74
2022/02/01 03:24:08;;;;;;;2.60;2.40;;;;;;;1.04;83.81;96966.94;6275686;28;20607;-74
2022/02/01 03:27:11;;;;;;;3.03;2.73;;;;;;;1.02;84.21;96969.59;6275418;28;20217;-73
2022/02/01 03:30:13;;;;;;;2.90;2.70;;;;;;;1.02;84.25;96966.16;6275802;28;20230;-73
2022/02/01 03:33:16;;;;;;;3.10;2.80;;;;;;;1.01;83.92;96974.88;6276342;28;20738;-74
2022/02/01 03:36:18;;;;;;;3.33;3.03;;;;;;;0.98;84.68;96982.84;6275468;28;20241;-74
2022/02/01 03:39:20;;;;;;;5.80;3.43;;;;;;;0.95;84.09;96983.00;6275361;28;20721;-73
2022/02/01 03:42:24;;;;;;;3.30;3.00;;;;;;;0.91;84.10;96989.28;6275281;28;20748;-74
2022/02/01 03:45:26;;;;;;;3.77;3.40;;;;;;;0.86;83.95;96992.13;6274617;28;20226;-74
2022/02/01 03:48:29;;;;;;;5.30;4.00;;;;;;;0.79;83.91;96998.56;6274599;28;20595;-74
2022/02/01 03:51:31;;;;;;;5.97;3.97;;;;;;;0.76;83.65;97013.47;6257042;28;20769;-74
2022/02/01 03:54:35;;;;;;;7.73;4.53;;;;;;;0.71;83.05;97009.34;6242089;28;20245;-73
2022/02/01 03:57:37;;;;;;;11.10;4.73;;;;;;;0.64;83.04;97009.75;6275297;28;20729;-74
2022/02/01 04:00:39;;;;;;;7.10;4.80;;;;;;;0.66;83.50;97020.91;6256405;28;20241;-73
2022/02/01 04:03:42;;;;;;;11.50;5.03;;;;;;;0.62;83.03;97028.00;6258599;28;20306;-74
2022/02/01 04:06:44;;;;;;;7.37;4.80;;;;;;;0.60;83.31;97019.44;6274667;28;20772;-74
2022/02/01 04:09:49;;;;;;;8.73;5.47;;;;;;;0.59;83.67;97017.78;6258401;28;20611;-73
2022/02/01 04:12:52;;;;;;;7.10;4.90;;;;;;;0.57;83.70;97011.81;6275183;28;20321;-74
2022/02/01 04:15:55;;;;;;;9.83;5.67;;;;;;;0.58;83.44;97023.88;6256482;28;20728;-74
2022/02/01 04:19:01;;;;;;;8.53;5.40;;;;;;;0.55;83.61;97026.63;6275106;28;20233;-74
2022/02/01 04:22:06;;;;;;;8.83;5.10;;;;;;;0.53;83.74;97031.06;6274821;28;20234;-74
2022/02/01 04:25:09;;;;;;;10.23;5.57;;;;;;;0.53;83.32;97038.00;6257157;28;20234;-74
2022/02/01 04:28:11;;;;;;;8.47;5.93;;;;;;;0.54;83.40;97045.72;6275701;28;20236;-73
2022/02/01 04:31:13;;;;;;;8.20;5.37;;;;;;;0.51;83.65;97050.22;6245133;28;20241;-74
2022/02/01 04:34:16;;;;;;;9.73;5.47;;;;;;;0.52;83.36;97057.94;6278796;28;20706;-74
2022/02/01 04:37:23;;;;;;;9.20;5.40;;;;;;;0.52;83.66;97050.16;6279143;28;20481;-74
2022/02/01 04:40:27;;;;;;;10.60;5.27;;;;;;;0.51;83.31;97052.81;6283610;28;20586;-74
2022/02/01 04:43:30;;;;;;;12.33;6.00;;;;;;;0.48;83.64;97053.84;6279355;28;20732;-74
2022/02/01 04:46:33;;;;;;;11.07;6.60;;;;;;;0.47;83.83;97064.28;6260615;28;20718;-74
2022/02/01 04:49:35;;;;;;;11.00;5.60;;;;;;;0.42;83.64;97072.28;6279229;28;20328;-74
2022/02/01 04:52:39;;;;;;;11.67;6.33;;;;;;;0.43;83.41;97079.16;6244427;28;20724;-74
2022/02/01 04:55:54;;;;;;;14.83;7.73;;;;;;;0.40;83.45;97094.88;6279934;28;20757;-74
2022/02/01 04:58:56;;;;;;;14.03;6.80;;;;;;;0.36;83.31;97085.56;6278427;28;20249;-74
2022/02/01 05:01:58;;;;;;;14.83;8.03;;;;;;;0.36;83.71;97109.78;6244651;28;20237;-74
2022/02/01 05:05:00;;;;;;;11.87;7.90;;;;;;;0.28;83.05;97111.91;6244488;28;20218;-74
2022/02/01 05:08:07;;;;;;;13.87;7.60;;;;;;;0.28;82.94;97121.44;6278113;28;20222;-74
2022/02/01 05:11:09;;;;;;;19.77;8.63;;;;;;;0.27;83.86;97127.56;6278975;28;20891;-74
2022/02/01 05:14:15;;;;;;;15.33;7.93;;;;;;;0.27;83.40;97124.94;6278001;28;20234;-74
2022/02/01 05:17:19;;;;;;;16.90;7.67;;;;;;;0.24;82.94;97125.94;6260908;28;20234;-74
2022/02/01 05:20:50;;;;;;;17.67;8.07;;;;;;;0.20;83.06;97119.19;6260943;28;20229;-74
2022/02/01 05:23:57;;;;;;;15.43;7.27;;;;;;;0.19;82.63;97121.91;6278107;28;20226;-74
2022/02/01 05:27:01;;;;;;;21.10;8.17;;;;;;;0.12;82.29;97123.91;6278393;28;20769;-74
2022/02/01 05:30:04;;;;;;;19.83;8.57;;;;;;;0.13;82.50;97145.50;6276882;28;20226;-74
2022/02/01 05:33:06;;;;;;;16.90;7.60;;;;;;;0.10;82.43;97149.09;6278462;28;20713;-74
2022/02/01 05:36:08;;;;;;;20.87;8.37;;;;;;;0.06;82.03;97157.09;6261175;28;20745;-74
2022/02/01 05:39:17;;;;;;;16.53;7.83;;;;;;;0.06;82.89;97172.66;6277112;28;20230;-74
2022/02/01 05:42:25;;;;;;;20.80;8.57;;;;;;;0.05;82.95;97181.34;6277720;28;20210;-74
2022/02/01 05:45:33;;;;;;;22.53;8.20;;;;;;;-0.03;83.25;97192.09;6260916;28;20705;-74
2022/02/01 05:48:36;;;;;;;17.33;8.33;;;;;;;-0.12;82.13;97200.31;6278056;28;20230;-74
2022/02/01 05:51:38;;;;;;;19.47;7.87;;;;;;;-0.15;82.59;97195.25;6278153;28;20234;-74
2022/02/01 05:54:41;;;;;;;18.67;7.47;;;;;;;-0.17;82.83;97203.09;6243585;28;20237;-73
2022/02/01 05:57:44;;;;;;;18.00;7.27;;;;;;;-0.19;82.82;97219.63;6277624;28;20603;-74
2022/02/01 06:00:47;;;;;;;15.47;6.70;;;;;;;-0.22;83.16;97230.16;6277997;28;20716;-74
2022/02/01 06:03:49;;;;;;;20.00;7.23;;;;;;;-0.21;82.74;97240.47;6277989;28;20377;-74
2022/02/01 06:06:51;;;;;;;15.70;6.13;;;;;;;-0.20;82.33;97249.06;6268101;28;20230;-74
2022/02/01 06:09:54;;;;;;;14.10;6.43;;;;;;;-0.20;82.50;97262.84;6277256;28;20578;-74
2022/02/01 06:12:56;;;;;;;15.73;6.30;;;;;;;-0.20;82.28;97273.22;6270580;28;20352;-73
2022/02/01 06:15:58;;;;;;;15.67;5.97;;;;;;;-0.19;82.02;97284.44;6276152;28;20299;-74
2022/02/01 06:19:01;;;;;;;19.20;6.73;;;;;;;-0.19;82.18;97287.03;6259986;28;20780;-74
2022/02/01 06:22:04;;;;;;;17.50;6.93;;;;;;;-0.19;81.89;97294.81;6242322;28;20234;-74
2022/02/01 06:25:08;;;;;;;17.77;7.00;;;;;;;-0.18;81.64;97299.94;6276310;28;20242;-74
2022/02/01 06:28:11;;;;;;;14.10;6.13;;;;;;;-0.16;81.60;97307.66;6276155;28;20234;-73
2022/02/01 06:31:13;;;;;;;15.53;6.63;;;;;;;-0.15;81.70;97317.97;6276551;28;20333;-74
2022/02/01 06:34:15;;;;;;;10.90;6.10;;;;;;;-0.13;81.33;97317.91;6274968;28;20230;-74
2022/02/01 06:37:17;;;;;;;19.23;6.33;;;;;;;-0.12;81.23;97325.63;6274134;28;20340;-74
2022/02/01 06:40:20;;;;;;;13.37;5.83;;;;;;;-0.10;80.96;97320.38;6278104;28;20246;-73
2022/02/01 06:43:23;;;;;;;13.37;6.07;;;;;;;-0.06;80.70;97334.88;6277889;28;20316;-74
2022/02/01 06:46:26;;;;;;;14.43;6.57;;;;;;;-0.04;80.39;97335.66;6279771;28;20245;-73
2022/02/01 06:49:28;;;;;;;17.40;6.17;;;;;;;-0.05;79.71;97334.81;6258382;28;20234;-74
2022/02/01 06:52:31;;;;;;;13.87;6.13;;;;;;;0.01;78.28;97341.47;6242193;28;20241;-74
2022/02/01 06:58:41;;;;;;;12.37;5.23;;;;;;;0.09;77.90;97334.22;6257616;28;20237;-74
2022/02/01 07:01:44;;;;;;;12.50;5.67;;;;;;;0.14;78.19;97340.03;6276140;28;20226;-74
2022/02/01 07:04:46;;;;;;;17.07;5.97;;;;;;;0.15;78.05;97354.69;6257441;28;20230;-73
2022/02/01 07:07:50;;;;;;;13.70;6.00;;;;;;;0.18;78.20;97348.53;6276693;28;20229;-73
2022/02/01 07:10:52;;;;;;;12.33;5.83;;;;;;;0.22;78.67;97361.28;6275801;28;20242;-74
2022/02/01 07:13:55;;;;;;;16.20;5.93;;;;;;;0.25;79.29;97365.50;6266788;28;20230;-73
2022/02/01 07:16:57;;;;;;;17.13;6.37;;;;;;;0.23;78.74;97368.16;6269723;28;20257;-73
2022/02/01 07:19:59;;;;;;;13.83;6.10;;;;;;;0.24;78.95;97381.97;6275092;28;20231;-74
2022/02/01 07:23:01;;;;;;;11.30;5.87;;;;;;;0.26;78.38;97391.38;6275683;28;20234;-73
2022/02/01 07:26:03;;;;;;;15.83;5.67;;;;;;;0.32;78.36;97413.63;6275312;28;21030;-74
2022/02/01 07:29:06;;;;;;;15.97;5.77;;;;;;;0.34;78.68;97409.22;6274993;28;20222;-73
2022/02/01 07:32:09;;;;;;;11.27;6.03;;;;;;;0.35;78.00;97411.75;6275087;28;20248;-73
2022/02/01 07:35:11;;;;;;;13.77;5.90;;;;;;;0.35;78.10;97409.16;6275088;28;20230;-74
2022/02/01 07:38:26;;;;;;;15.90;6.37;;;;;;;0.40;77.59;97427.09;6275063;28;20596;-74
2022/02/01 07:41:28;;;;;;;20.00;6.30;;;;;;;0.49;77.56;97442.28;6275905;28;20701;-73
2022/02/01 07:44:30;;;;;;;11.73;5.60;;;;;;;0.60;77.11;97447.00;6274920;28;20840;-74
2022/02/01 07:47:32;;;;;;;12.50;5.87;;;;;;;0.63;77.02;97445.09;6275584;28;20229;-73
2022/02/01 07:50:36;;;;;;;14.53;5.63;;;;;;;0.72;75.54;97446.44;6275144;28;20619;-73
2022/02/01 07:53:38;;;;;;;13.80;5.90;;;;;;;0.81;75.66;97440.84;6275321;28;20718;-74
2022/02/01 07:56:40;;;;;;;15.63;6.20;;;;;;;0.83;74.67;97428.63;6257292;28;20222;-73
2022/02/01 07:59:43;;;;;;;11.37;5.47;;;;;;;0.88;74.58;97437.06;6274895;28;20230;-74
2022/02/01 08:02:45;;;;;;;14.17;6.30;;;;;;;0.90;74.12;97435.22;6275069;28;20233;-74
2022/02/01 08:05:51;;;;;;;14.50;5.17;;;;;;;0.95;74.80;97441.06;6279581;28;20249;-74
2022/02/01 08:08:54;;;;;;;13.90;5.10;;;;;;;0.95;75.30;97454.03;6262284;28;20238;-73
2022/02/01 08:11:56;;;;;;;13.37;5.33;;;;;;;0.95;75.17;97456.66;6278313;28;20614;-74
2022/02/01 08:18:45;;;;;;;17.07;5.90;;;;;;;0.95;75.47;97461.84;6279110;28;20769;-74
2022/02/01 08:21:47;;;;;;;12.50;5.23;;;;;;;0.96;75.28;97463.53;6261590;28;20249;-74
2022/02/01 08:24:50;;;;;;;14.27;5.53;;;;;;;0.95;75.86;97484.38;6279539;28;20238;-74
2022/02/01 08:27:54;;;;;;;19.37;6.60;;;;;;;0.87;74.88;97492.53;6278189;28;20264;-74
2022/02/01 08:30:56;;;;;;;13.87;5.17;;;;;;;0.80;74.77;97501.47;6279205;28;20608;-74
2022/02/01 08:33:58;;;;;;;8.40;4.33;;;;;;;0.79;75.00;97510.22;6279181;28;20226;-74
2022/02/01 08:37:00;;;;;;;8.93;4.87;;;;;;;0.83;74.81;97501.34;6254385;28;20242;-74
2022/02/01 08:40:03;;;;;;;12.23;4.60;;;;;;;0.87;73.94;97508.09;6275626;28;20230;-74
2022/02/01 08:43:06;;;;;;;13.77;4.87;;;;;;;0.85;74.28;97519.47;6278864;28;20234;-74
2022/02/01 08:46:08;;;;;;;12.60;5.33;;;;;;;0.86;73.45;97518.56;6280701;28;20343;-74
2022/02/01 08:49:10;;;;;;;19.60;5.20;;;;;;;0.92;74.19;97515.69;6278211;28;20234;-74
2022/02/01 08:52:23;;;;;;;11.70;4.77;;;;;;;0.96;73.00;97512.03;6260953;28;20597;-74
2022/02/01 08:55:38;;;;;;;12.87;5.80;;;;;;;0.96;72.73;97515.50;6278363;28;20254;-73
2022/02/01 08:58:41;;;;;;;10.43;5.30;;;;;;;0.92;73.60;97513.94;6279157;28;20227;-74
2022/02/01 09:01:43;;;;;;;19.17;6.13;;;;;;;0.94;73.53;97522.50;6278877;28;20292;-74
2022/02/01 09:04:46;;;;;;;15.00;5.97;;;;;;;0.93;74.45;97519.97;6253599;28;20238;-74
2022/02/01 09:07:48;;;;;;;15.17;5.80;;;;;;;0.89;75.20;97523.63;6278419;28;20325;-74
2022/02/01 09:10:50;;;;;;;13.10;5.57;;;;;;;0.87;75.45;97515.06;6276581;28;20246;-74
2022/02/01 09:13:52;;;;;;;11.10;5.30;;;;;;;0.95;75.42;97521.59;6278865;28;20279;-74
2022/02/01 09:16:54;;;;;;;14.37;5.67;;;;;;;1.07;75.80;97513.25;6259184;28;20226;-74
2022/02/01 09:19:58;;;;;;;11.13;5.43;;;;;;;1.14;75.37;97503.41;6278279;28;20588;-74
2022/02/01 09:23:02;;;;;;;10.30;5.47;;;;;;;1.22;75.57;97509.09;6277520;28;20237;-74
2022/02/01 09:26:04;;;;;;;13.73;5.63;;;;;;;1.32;74.75;97502.56;6259787;28;20238;-72
2022/02/01 09:29:07;;;;;;;13.23;5.73;;;;;;;1.27;74.57;97494.16;6261694;28;20264;-73
2022/02/01 09:32:09;;;;;;;13.77;5.80;;;;;;;1.28;75.49;97492.41;6259909;28;21780;-73
2022/02/01 09:35:31;;;;;;;11.70;4.80;;;;;;;1.24;74.98;97491.69;6277850;28;20306;-74
2022/02/01 09:38:35;;;;;;;12.90;5.23;;;;;;;1.26;73.96;97489.03;6278485;28;20226;-73
2022/02/01 09:41:39;;;;;;;13.27;6.27;;;;;;;1.31;74.57;97487.88;6277293;28;20889;-75
2022/02/01 09:44:41;;;;;;;9.57;5.53;;;;;;;1.32;73.64;97480.94;6259749;28;20315;-74
2022/02/01 09:47:46;;;;;;;13.50;5.40;;;;;;;1.44;74.24;97490.75;6277368;28;20313;-74
2022/02/01 09:50:50;;;;;;;15.23;5.20;;;;;;;1.54;73.46;97478.16;6277576;28;20427;-73
2022/02/01 09:53:53;;;;;;;10.00;5.57;;;;;;;1.55;73.09;97480.69;6277463;28;20355;-74
2022/02/01 09:56:58;;;;;;;9.20;4.87;;;;;;;1.71;73.44;97489.44;6259419;28;20229;-74
2022/02/01 10:00:01;;;;;;;12.73;4.70;;;;;;;1.82;72.81;97483.72;6277623;28;20230;-74
2022/02/01 10:03:19;;;;;;;9.83;5.00;;;;;;;1.84;72.15;97493.16;6276811;28;20215;-73
2022/02/01 10:06:22;;;;;;;11.63;4.40;;;;;;;2.05;71.63;97501.66;6278059;28;20332;-74
2022/02/01 10:09:24;;;;;;;13.60;5.33;;;;;;;2.27;71.20;97503.22;6277509;28;20230;-74
2022/02/01 10:12:35;;;;;;;11.20;4.40;;;;;;;2.51;70.65;97517.59;6277163;28;20222;-74
2022/02/01 10:15:38;;;;;;;9.67;4.03;;;;;;;2.65;70.01;97511.69;6277030;28;20227;-74
2022/02/01 10:18:40;;;;;;;11.53;5.00;;;;;;;2.70;70.18;97513.13;6276204;28;20309;-73
2022/02/01 10:21:54;;;;;;;8.47;3.97;;;;;;;2.90;69.72;97512.06;6277388;28;20235;-74
2022/02/01 10:24:56;;;;;;;7.57;4.77;;;;;;;3.12;68.23;97514.41;6276099;28;20226;-73
2022/02/01 10:28:02;;;;;;;7.93;5.07;;;;;;;3.22;67.78;97511.22;6276591;28;20233;-74
2022/02/01 10:31:31;;;;;;;8.60;4.53;;;;;;;3.53;68.85;97493.91;6251460;28;20596;-74
2022/02/01 10:37:38;;;;;;;6.77;4.30;;;;;;;4.11;66.00;97481.03;6260874;28;20243;-73
2022/02/01 10:40:43;;;;;;;9.77;4.03;;;;;;;4.10;64.99;97471.50;6276797;28;20226;-74
2022/02/01 10:44:01;;;;;;;9.13;4.80;;;;;;;3.76;65.97;97471.75;6275786;28;20233;-75
2022/02/01 10:47:03;;;;;;;5.37;3.50;;;;;;;3.66;66.87;97454.00;6259323;28;20227;-74
2022/02/01 10:50:28;;;;;;;9.13;4.00;;;;;;;3.61;66.51;97453.41;6276623;28;20266;-74
2022/02/01 10:53:36;;;;;;;6.13;4.20;;;;;;;3.46;66.37;97448.22;6276520;28;20231;-75
2022/02/01 10:56:38;;;;;;;6.93;4.60;;;;;;;3.80;66.03;97437.56;6277711;28;20242;-75
2022/02/01 10:59:42;;;;;;;6.63;4.33;;;;;;;3.93;66.04;97435.09;6276844;28;20254;-75
2022/02/01 11:02:46;;;;;;;7.30;4.03;;;;;;;3.79;66.46;97424.63;6242475;28;20227;-73
2022/02/01 11:05:51;;;;;;;7.30;4.63;;;;;;;3.71;67.26;97425.03;6244707;28;20228;-74
2022/02/01 11:08:55;;;;;;;8.97;4.33;;;;;;;3.39;66.37;97441.69;6252176;28;20232;-74
2022/02/01 11:12:06;;;;;;;5.20;3.80;;;;;;;3.08;67.20;97424.25;6256169;28;20239;-74
2022/02/01 11:15:26;;;;;;;5.67;3.93;;;;;;;2.85;68.39;97434.16;6276426;28;20234;-73
2022/02/01 11:18:34;;;;;;;9.67;4.17;;;;;;;2.72;68.84;97422.69;6242786;28;20230;-75
2022/02/01 11:21:47;;;;;;;6.20;4.20;;;;;;;2.68;68.65;97410.78;6277743;28;20230;-74
2022/02/01 11:24:54;;;;;;;7.47;4.33;;;;;;;2.76;69.34;97410.34;6275856;28;20284;-74
2022/02/01 11:31:03;;;;;;;7.43;3.87;;;;;;;3.05;69.28;97393.97;6258336;28;20231;-74
2022/02/01 11:34:05;;;;;;;4.63;3.43;;;;;;;3.14;68.92;97393.47;6258903;28;20272;-74
2022/02/01 11:37:10;;;;;;;6.40;4.13;;;;;;;3.01;69.02;97389.00;6274511;28;20379;-74
2022/02/01 11:40:18;;;;;;;4.73;3.40;;;;;;;3.02;69.47;97375.91;6242624;28;20264;-74
2022/02/01 11:43:25;;;;;;;5.00;3.47;;;;;;;3.22;68.12;97373.03;6265962;28;20243;-74
2022/02/01 11:46:31;;;;;;;6.37;3.70;;;;;;;3.18;67.94;97355.03;6275736;28;20229;-74
2022/02/01 11:49:35;;;;;;;4.37;3.40;;;;;;;3.16;68.75;97364.72;6275646;28;20227;-73
2022/02/01 11:52:51;;;;;;;6.03;4.33;;;;;;;3.46;68.46;97352.56;6275440;28;20230;-74
2022/02/01 11:55:54;;;;;;;5.40;3.53;;;;;;;3.67;67.65;97369.59;6276200;28;20322;-73
2022/02/01 11:59:00;;;;;;;4.77;3.43;;;;;;;3.85;66.58;97352.00;6257463;28;20223;-73
2022/02/01 12:02:06;;;;;;;4.70;3.73;;;;;;;3.88;66.69;97325.75;6275600;28;20599;-73
2022/02/01 12:05:29;;;;;;;5.90;4.20;;;;;;;3.98;67.34;97342.53;6257573;28;20231;-73
2022/02/01 12:08:34;;;;;;;4.73;3.57;;;;;;;4.23;65.49;97335.81;6275474;28;20241;-74
2022/02/01 12:11:40;;;;;;;4.43;3.27;;;;;;;4.60;64.80;97350.94;6257280;28;20620;-74
2022/02/01 12:14:42;;;;;;;4.77;3.10;;;;;;;4.30;63.20;97337.97;6274008;28;20235;-74
2022/02/01 12:17:49;;;;;;;3.67;2.90;;;;;;;4.04;65.30;97331.72;6276620;28;20660;-72
2022/02/01 12:21:01;;;;;;;4.03;2.90;;;;;;;3.78;66.21;97335.03;6276215;28;20280;-74
2022/02/01 12:24:05;;;;;;;3.73;2.77;;;;;;;3.83;66.74;97340.81;6274657;28;20694;-73
2022/02/01 12:27:07;;;;;;;3.30;2.53;;;;;;;3.84;67.57;97328.59;6257251;28;20220;-74
2022/02/01 12:30:10;;;;;;;2.40;2.20;;;;;;;3.78;67.52;97331.59;6274742;28;20232;-75
2022/02/01 12:33:19;;;;;;;2.17;1.97;;;;;;;3.48;67.02;97319.41;6257948;28;20244;-74
2022/02/01 12:36:31;;;;;;;2.73;2.30;;;;;;;3.45;68.58;97332.59;6274622;28;20239;-74
2022/02/01 12:39:35;;;;;;;2.07;1.93;;;;;;;3.45;68.27;97337.81;6275558;28;20525;-75
2022/02/01 12:42:50;;;;;;;2.03;1.83;;;;;;;3.38;68.25;97330.44;6275462;28;20227;-74
2022/02/01 12:49:58;;;;;;;3.00;2.07;;;;;;;3.31;68.22;97343.81;6176372;28;20608;-73
2022/02/01 12:53:04;;;;;;;3.43;1.73;;;;;;;3.22;68.83;97351.31;6177449;28;20263;-73
2022/02/01 12:56:18;;;;;;;2.17;1.90;;;;;;;3.16;68.65;97349.06;6179359;28;20746;-73
2022/02/01 12:59:22;;;;;;;2.30;2.10;;;;;;;3.14;70.08;97349.16;6178360;28;20803;-74
2022/02/01 13:02:26;;;;;;;2.20;2.00;;;;;;;3.17;68.99;97328.13;6177495;28;20603;-72
2022/02/01 13:05:30;;;;;;;1.83;1.70;;;;;;;3.21;69.24;97328.78;6185049;28;20264;-74
2022/02/01 13:21:47;;;;;;;2.07;1.87;;;;;;;3.29;68.61;97334.44;6200601;28;20225;-74
2022/02/01 13:25:08;;;;;;;2.33;1.80;;;;;;;3.30;68.59;97339.53;6200783;28;20266;-73
2022/02/01 13:28:15;;;;;;;2.17;1.90;;;;;;;2.93;69.42;97322.50;6201200;28;20229;-74
2022/02/01 13:31:20;;;;;;;2.17;1.80;;;;;;;2.65;70.35;97334.53;6200620;28;20240;-75
2022/02/01 13:34:30;;;;;;;2.17;1.97;;;;;;;2.46;70.41;97327.72;6202547;28;20337;-73
2022/02/01 13:37:34;;;;;;;2.50;2.30;;;;;;;2.45;70.60;97319.97;6184377;28;20275;-73
2022/02/01 13:40:36;;;;;;;1.87;1.70;;;;;;;2.49;70.79;97324.13;6200716;28;20288;-75
2022/02/01 13:43:47;;;;;;;2.13;1.90;;;;;;;2.28;72.29;97296.63;6198979;28;20272;-73
2022/02/01 13:47:07;;;;;;;2.93;2.03;;;;;;;2.17;72.24;97303.22;6184451;28;20307;-73
2022/02/01 13:50:15;;;;;;;2.40;2.03;;;;;;;2.25;72.05;97315.84;6266540;28;20313;-74
2022/02/01 13:53:17;;;;;;;2.93;2.00;;;;;;;2.30;72.45;97307.75;6242275;28;20372;-72
2022/02/01 13:56:26;;;;;;;1.73;1.60;;;;;;;2.27;72.49;97308.78;6279302;28;20222;-72
2022/02/01 13:59:29;;;;;;;2.90;2.40;;;;;;;2.14;73.49;97326.81;6276996;28;20222;-73
2022/02/01 14:02:36;;;;;;;3.20;1.90;;;;;;;2.04;73.42;97317.81;6277185;28;20609;-73
2022/02/01 14:05:40;;;;;;;7.73;2.53;;;;;;;1.88;74.35;97311.72;6276521;28;20233;-73
2022/02/01 14:08:51;;;;;;;6.63;2.60;;;;;;;1.82;74.38;97309.41;6260027;28;20577;-73
2022/02/01 14:34:52;;;;;;;8.20;2.50;;;;;;;2.13;69.70;97238.38;6276744;28;20825;-74
2022/02/01 14:38:22;;;;;;;7.20;2.40;;;;;;;2.09;69.53;97234.28;6265849;28;20250;-74
2022/02/01 14:45:08;;;;;;;8.13;2.63;;;;;;;1.88;68.75;97225.03;6248049;28;20223;-75
2022/02/01 14:48:10;;;;;;;12.17;2.70;;;;;;;1.84;69.90;97251.19;6248441;28;20598;-74
2022/02/01 14:51:12;;;;;;;10.30;2.50;;;;;;;1.77;69.91;97236.00;6247986;28;20230;-74
2022/02/01 14:54:18;;;;;;;10.67;3.13;;;;;;;1.67;69.93;97242.59;6246704;28;20215;-72
2022/02/01 15:05:07;;;;;;;7.23;2.20;;;;;;;1.56;70.86;97211.94;6248188;28;20708;-74
2022/02/01 15:11:23;;;;;;;14.10;2.57;;;;;;;1.47;70.92;97209.81;6249966;28;20239;-74
2022/02/01 15:14:25;;;;;;;6.83;2.23;;;;;;;1.46;70.89;97206.38;6274976;28;20425;-74
2022/02/01 15:17:27;;;;;;;11.03;2.43;;;;;;;1.45;71.07;97206.44;6275431;28;20605;-73
2022/02/01 15:20:29;;;;;;;5.37;2.03;;;;;;;1.45;71.29;97189.09;6275150;28;20705;-72
2022/02/01 15:23:32;;;;;;;9.90;1.90;;;;;;;1.43;70.90;97214.31;6258156;28;20282;-73
2022/02/01 15:26:34;;;;;;;8.57;2.10;;;;;;;1.39;71.40;97188.59;6276152;28;20237;-73
2022/02/01 15:29:36;;;;;;;11.13;2.37;;;;;;;1.37;72.05;97206.00;6257711;28;20230;-74
2022/02/01 15:32:38;;;;;;;5.20;2.13;;;;;;;1.36;71.93;97210.38;6275390;28;20233;-72
2022/02/01 15:35:42;;;;;;;5.63;2.00;;;;;;;1.34;72.41;97190.56;6256946;28;20237;-73
2022/02/01 15:45:53;;;;;;;4.50;1.60;;;;;;;1.32;71.67;97201.03;6274521;28;20638;-73
2022/02/01 15:59:24;;;;;;;8.63;2.63;;;;;;;0.90;73.46;97180.66;6275392;28;20222;-72
2022/02/01 16:02:42;;;;;;;3.63;1.63;;;;;;;0.89;73.35;97170.38;6275332;28;20226;-73
2022/02/01 16:05:44;;;;;;;6.23;2.30;;;;;;;0.89;72.63;97153.03;6274956;28;20288;-73
2022/02/01 16:08:48;;;;;;;3.97;1.30;;;;;;;0.93;72.61;97164.91;6274564;28;20237;-72
2022/02/01 16:11:51;;;;;;;5.27;1.80;;;;;;;0.95;72.24;97165.69;6257170;28;20237;-73
2022/02/01 16:14:53;;;;;;;5.03;1.50;;;;;;;1.02;71.38;97156.66;6275211;28;20264;-73
2022/02/01 16:17:56;;;;;;;3.47;1.40;;;;;;;1.01;71.93;97147.19;6274816;28;20230;-73
2022/02/01 16:20:59;;;;;;;6.20;1.63;;;;;;;1.01;71.50;97134.19;6274334;28;20318;-73
2022/02/01 16:24:22;;;;;;;4.10;1.40;;;;;;;1.01;72.38;97129.00;6276096;28;20636;-73
2022/02/01 16:27:26;;;;;;;6.23;1.37;;;;;;;1.00;72.01;97111.72;6284854;28;20685;-73
2022/02/01 16:30:32;;;;;;;3.67;1.30;;;;;;;1.01;72.05;97107.38;6261954;28;20234;-73
2022/02/01 16:33:35;;;;;;;2.73;1.20;;;;;;;1.00;71.84;97118.69;6261556;28;20238;-73
2022/02/01 16:36:58;;;;;;;4.57;1.37;;;;;;;0.98;71.22;97113.59;6279752;28;20325;-73
2022/02/01 16:40:04;;;;;;;4.17;1.20;;;;;;;1.02;71.21;97114.25;6261854;28;20230;-73
2022/02/01 16:43:14;;;;;;;4.47;1.33;;;;;;;1.05;71.01;97064.75;6266281;28;20231;-73
2022/02/01 16:46:21;;;;;;;3.10;1.40;;;;;;;1.00;72.10;97084.91;6277239;28;20710;-72
2022/02/01 16:49:23;;;;;;;3.03;1.10;;;;;;;0.99;71.05;97060.72;6278452;28;20308;-71
2022/02/01 16:52:29;;;;;;;4.13;1.00;;;;;;;0.96;71.32;97060.88;6279034;28;20264;-73
2022/02/01 16:56:20;;;;;;;3.57;1.20;;;;;;;0.92;71.25;97061.09;6262322;28;20257;-73
2022/02/01 16:59:07;;;;;;;2.40;0.80;;;;;;;0.93;71.48;97042.84;6270187;28;20227;-73
2022/02/01 17:02:09;;;;;;;1.87;1.10;;;;;;;0.96;70.29;97024.50;6278686;28;20707;-73
2022/02/01 17:05:11;;;;;;;1.37;1.13;;;;;;;1.01;69.65;97021.63;6261041;28;20268;-73
2022/02/01 17:08:16;;;;;;;2.33;0.97;;;;;;;1.02;69.87;97012.94;6280863;28;20238;-74
2022/02/01 17:11:36;;;;;;;2.63;1.00;;;;;;;0.98;69.48;97014.03;6278452;28;20645;-73
2022/02/01 17:14:57;;;;;;;0.97;0.70;;;;;;;1.04;69.35;97026.69;6278729;28;20219;-75
2022/02/01 17:18:15;;;;;;;2.10;0.80;;;;;;;1.02;69.83;97005.13;6260800;28;20237;-73